createdAt,value
2019-02-21T00:01:09.432Z,101604.00
2019-02-21T00:03:39.798Z,101618.00
2019-02-21T00:06:10.182Z,101601.00
2019-02-21T00:08:40.653Z,101608.00
2019-02-21T00:11:11.862Z,101598.00
2019-02-21T00:13:42.260Z,101605.00
2019-02-21T00:16:13.172Z,101605.00
2019-02-21T00:18:44.564Z,101603.00
2019-02-21T00:21:15.354Z,101612.00
2019-02-21T00:23:45.718Z,101603.00
2019-02-21T00:26:16.174Z,101606.00
2019-02-21T00:28:46.607Z,101609.00
2019-02-21T00:31:16.994Z,101613.00
2019-02-21T00:33:47.342Z,101600.00
2019-02-21T00:36:17.759Z,101602.00
2019-02-21T00:38:48.820Z,101606.00
2019-02-21T00:41:19.403Z,101607.00
2019-02-21T00:43:49.778Z,101601.00
2019-02-21T00:46:21.934Z,101602.00
2019-02-21T00:48:52.303Z,101599.00
2019-02-21T00:51:22.643Z,101605.00
2019-02-21T00:53:52.914Z,101589.00
2019-02-21T00:56:23.280Z,101593.00
2019-02-21T00:58:53.680Z,101603.00
2019-02-21T01:01:24.309Z,101601.00
2019-02-21T01:03:54.721Z,101604.00
2019-02-21T01:06:25.078Z,101595.00
2019-02-21T01:08:55.454Z,101595.00
2019-02-21T01:11:25.861Z,101599.00
2019-02-21T01:13:56.284Z,101599.00
2019-02-21T01:16:26.724Z,101603.00
2019-02-21T01:18:57.331Z,101599.00
2019-02-21T01:21:27.749Z,101603.00
2019-02-21T01:23:58.115Z,101608.00
2019-02-21T01:26:28.587Z,101599.00
2019-02-21T01:28:58.913Z,101593.00
2019-02-21T01:31:29.421Z,101599.00
2019-02-21T01:33:59.813Z,101599.00
2019-02-21T01:36:30.220Z,101594.00
2019-02-21T01:39:00.602Z,101609.00
2019-02-21T01:41:31.077Z,101605.00
2019-02-21T01:44:01.697Z,101600.00
2019-02-21T01:46:35.547Z,101599.00
2019-02-21T01:49:05.933Z,101617.00
2019-02-21T01:51:36.425Z,101605.00
2019-02-21T01:54:06.922Z,101606.00
2019-02-21T01:56:37.503Z,101606.00
2019-02-21T01:59:08.916Z,101598.00
2019-02-21T02:01:39.290Z,101613.00
2019-02-21T02:04:10.940Z,101619.00
2019-02-21T02:06:41.387Z,101612.00
2019-02-21T02:09:13.673Z,101601.00
2019-02-21T02:11:43.995Z,101600.00
2019-02-21T02:14:14.383Z,101601.00
2019-02-21T02:16:45.007Z,101604.00
2019-02-21T02:19:15.358Z,101607.00
2019-02-21T02:21:45.753Z,101599.00
2019-02-21T02:24:19.281Z,101604.00
2019-02-21T02:26:52.417Z,101605.00
2019-02-21T02:29:23.019Z,101603.00
2019-02-21T02:31:53.484Z,101603.00
2019-02-21T02:34:23.907Z,101608.00
2019-02-21T02:36:54.305Z,101597.00
2019-02-21T02:39:24.712Z,101601.00
2019-02-21T02:41:55.472Z,101605.00
2019-02-21T02:44:25.903Z,101603.00
2019-02-21T02:46:56.318Z,101607.00
2019-02-21T02:49:26.757Z,101607.00
2019-02-21T02:51:57.360Z,101613.00
2019-02-21T02:54:27.713Z,101599.00
2019-02-21T02:56:58.233Z,101604.00
2019-02-21T02:59:40.084Z,101612.00
2019-02-21T03:02:00.821Z,101616.00
2019-02-21T03:04:31.204Z,101609.00
2019-02-21T03:07:01.519Z,101617.00
2019-02-21T03:09:31.929Z,101616.00
2019-02-21T03:12:02.449Z,101616.00
2019-02-21T03:14:32.830Z,101617.00
2019-02-21T03:17:03.646Z,101619.00
2019-02-21T03:19:34.055Z,101628.00
2019-02-21T03:22:04.472Z,101629.00
2019-02-21T03:24:34.846Z,101622.00
2019-02-21T03:27:05.215Z,101623.00
2019-02-21T03:29:35.655Z,101624.00
2019-02-21T03:32:05.985Z,101615.00
2019-02-21T03:34:36.364Z,101617.00
2019-02-21T03:37:06.758Z,101605.00
2019-02-21T03:39:37.160Z,101609.00
2019-02-21T03:42:07.781Z,101606.00
2019-02-21T03:44:38.256Z,101593.00
2019-02-21T03:47:30.157Z,101597.00
2019-02-21T03:50:00.635Z,101603.00
2019-02-21T03:52:31.086Z,101594.00
2019-02-21T03:55:01.592Z,101585.00
2019-02-21T03:57:32.178Z,101598.00
2019-02-21T04:00:02.783Z,101603.00
2019-02-21T04:02:33.299Z,101602.00
2019-02-21T04:05:03.709Z,101596.00
2019-02-21T04:07:34.370Z,101600.00
2019-02-21T04:10:04.875Z,101604.00
2019-02-21T04:12:35.241Z,101601.00
2019-02-21T04:15:06.841Z,101607.00
2019-02-21T04:17:37.562Z,101612.00
2019-02-21T04:20:08.440Z,101590.00
2019-02-21T04:22:38.925Z,101600.00
2019-02-21T04:25:09.639Z,101593.00
2019-02-21T04:27:40.026Z,101590.00
2019-02-21T04:30:10.447Z,101588.00
2019-02-21T04:32:40.865Z,101580.00
2019-02-21T04:35:11.603Z,101579.00
2019-02-21T04:37:42.024Z,101572.00
2019-02-21T04:40:14.303Z,101574.00
2019-02-21T04:42:44.704Z,101575.00
2019-02-21T04:45:15.112Z,101567.00
2019-02-21T04:47:45.738Z,101574.00
2019-02-21T04:50:16.122Z,101575.00
2019-02-21T04:52:46.999Z,101575.00
2019-02-21T04:55:17.566Z,101576.00
2019-02-21T04:57:48.440Z,101574.00
2019-02-21T05:00:18.885Z,101572.00
2019-02-21T05:02:49.283Z,101585.00
2019-02-21T05:05:19.840Z,101573.00
2019-02-21T05:07:50.202Z,101576.00
2019-02-21T05:10:20.641Z,101574.00
2019-02-21T05:12:51.204Z,101580.00
2019-02-21T05:15:21.686Z,101581.00
2019-02-21T05:17:52.355Z,101577.00
2019-02-21T05:20:22.861Z,101570.00
2019-02-21T05:22:53.369Z,101574.00
2019-02-21T05:25:23.951Z,101571.00
2019-02-21T05:28:11.950Z,101570.00
2019-02-21T05:30:42.682Z,101570.00
2019-02-21T05:33:31.128Z,101565.00
2019-02-21T05:36:26.209Z,101577.00
2019-02-21T05:39:21.617Z,101571.00
2019-02-21T05:42:11.265Z,101578.00
2019-02-21T05:45:00.808Z,101576.00
2019-02-21T05:47:54.261Z,101581.00
2019-02-21T05:50:33.314Z,101573.00
2019-02-21T05:53:08.848Z,101578.00
2019-02-21T05:56:13.653Z,101574.00
2019-02-21T05:59:01.402Z,101587.00
2019-02-21T06:02:09.079Z,101588.00
2019-02-21T06:05:03.954Z,101586.00
2019-02-21T06:07:51.574Z,101581.00
2019-02-21T06:10:49.877Z,101585.00
2019-02-21T06:13:37.904Z,101583.00
2019-02-21T06:16:25.590Z,101583.00
2019-02-21T06:19:32.876Z,101584.00
2019-02-21T06:22:30.920Z,101591.00
2019-02-21T06:25:09.114Z,101593.00
2019-02-21T06:27:53.786Z,101597.00
2019-02-21T06:30:29.749Z,101597.00
2019-02-21T06:33:04.974Z,101593.00
2019-02-21T06:35:32.866Z,101604.00
2019-02-21T06:38:03.405Z,101602.00
2019-02-21T06:40:36.432Z,101599.00
2019-02-21T06:43:06.736Z,101598.00
2019-02-21T06:45:37.576Z,101595.00
2019-02-21T06:48:08.088Z,101603.00
2019-02-21T06:50:38.946Z,101607.00
2019-02-21T06:53:10.088Z,101607.00
2019-02-21T06:55:41.034Z,101606.00
2019-02-21T06:58:11.941Z,101627.00
2019-02-21T07:00:43.095Z,101619.00
2019-02-21T07:03:16.087Z,101628.00
2019-02-21T07:05:46.672Z,101627.00
2019-02-21T07:08:18.100Z,101635.00
2019-02-21T07:10:49.635Z,101631.00
2019-02-21T07:13:26.450Z,101637.00
2019-02-21T07:15:54.745Z,101624.00
2019-02-21T07:18:28.656Z,101627.00
2019-02-21T07:21:01.944Z,101630.00
2019-02-21T07:23:43.171Z,101637.00
2019-02-21T07:26:10.604Z,101638.00
2019-02-21T07:28:41.989Z,101639.00
2019-02-21T07:31:13.060Z,101635.00
2019-02-21T07:33:44.286Z,101641.00
2019-02-21T07:36:15.733Z,101643.00
2019-02-21T07:38:46.481Z,101636.00
2019-02-21T07:41:18.633Z,101641.00
2019-02-21T07:43:50.274Z,101644.00
2019-02-21T07:46:21.502Z,101637.00
2019-02-21T07:48:52.467Z,101655.00
2019-02-21T07:51:23.612Z,101653.00
2019-02-21T07:53:54.199Z,101647.00
2019-02-21T07:56:25.414Z,101655.00
2019-02-21T07:58:57.691Z,101659.00
2019-02-21T08:01:29.249Z,101671.00
2019-02-21T08:04:01.718Z,101667.00
2019-02-21T08:06:32.963Z,101660.00
2019-02-21T08:09:05.409Z,101671.00
2019-02-21T08:11:36.399Z,101663.00
2019-02-21T08:14:07.507Z,101673.00
2019-02-21T08:16:38.904Z,101667.00
2019-02-21T08:19:09.969Z,101682.00
2019-02-21T08:21:43.356Z,101675.00
2019-02-21T08:24:12.998Z,101679.00
2019-02-21T08:26:43.845Z,101668.00
2019-02-21T08:29:14.819Z,101682.00
2019-02-21T08:31:45.869Z,101669.00
2019-02-21T08:34:27.477Z,101678.00
2019-02-21T08:36:58.063Z,101682.00
2019-02-21T08:39:28.750Z,101683.00
2019-02-21T08:42:02.559Z,101691.00
2019-02-21T08:44:33.597Z,101685.00
2019-02-21T08:47:04.577Z,101681.00
2019-02-21T08:49:35.547Z,101691.00
2019-02-21T08:52:06.740Z,101700.00
2019-02-21T08:54:37.694Z,101684.00
2019-02-21T08:57:09.705Z,101690.00
2019-02-21T08:59:42.340Z,101689.00
2019-02-21T09:02:13.193Z,101695.00
2019-02-21T09:04:46.289Z,101682.00
2019-02-21T09:07:17.113Z,101705.00
2019-02-21T09:09:48.279Z,101705.00
2019-02-21T09:12:18.907Z,101718.00
2019-02-21T09:14:49.643Z,101713.00
2019-02-21T09:17:21.397Z,101710.00
2019-02-21T09:19:52.451Z,101720.00
2019-02-21T09:22:23.431Z,101715.00
2019-02-21T09:24:54.137Z,101722.00
2019-02-21T09:27:24.926Z,101720.00
2019-02-21T09:29:55.991Z,101720.00
2019-02-21T09:32:26.513Z,101721.00
2019-02-21T09:35:03.963Z,101721.00
2019-02-21T09:37:35.103Z,101725.00
2019-02-21T09:40:06.324Z,101710.00
2019-02-21T09:42:37.361Z,101718.00
2019-02-21T09:45:11.519Z,101730.00
2019-02-21T09:47:44.382Z,101727.00
2019-02-21T09:50:15.548Z,101717.00
2019-02-21T09:52:46.307Z,101720.00
2019-02-21T09:55:17.899Z,101721.00
2019-02-21T09:57:48.672Z,101717.00
2019-02-21T10:00:20.388Z,101711.00
2019-02-21T10:02:54.301Z,101712.00
2019-02-21T10:05:23.079Z,101708.00
2019-02-21T10:07:55.400Z,101717.00
2019-02-21T10:10:26.193Z,101703.00
2019-02-21T10:12:59.967Z,101697.00
2019-02-21T10:15:31.484Z,101696.00
2019-02-21T10:18:02.035Z,101703.00
2019-02-21T10:20:32.775Z,101706.00
2019-02-21T10:23:03.819Z,101693.00
2019-02-21T10:25:34.693Z,101698.00
2019-02-21T10:28:05.405Z,101691.00
2019-02-21T10:30:36.776Z,101694.00
2019-02-21T10:33:07.574Z,101691.00
2019-02-21T10:35:38.240Z,101689.00
2019-02-21T10:38:09.209Z,101690.00
2019-02-21T10:40:39.797Z,101685.00
2019-02-21T10:43:10.472Z,101689.00
2019-02-21T10:45:47.967Z,101676.00
2019-02-21T10:48:14.367Z,101669.00
2019-02-21T10:50:45.029Z,101674.00
2019-02-21T10:53:15.588Z,101669.00
2019-02-21T10:55:48.583Z,101672.00
2019-02-21T10:58:19.395Z,101659.00
2019-02-21T11:00:50.047Z,101664.00
2019-02-21T11:03:20.662Z,101666.00
2019-02-21T11:05:51.470Z,101666.00
2019-02-21T11:08:22.121Z,101669.00
2019-02-21T11:10:53.280Z,101660.00
2019-02-21T11:13:24.297Z,101658.00
2019-02-21T11:15:55.046Z,101657.00
2019-02-21T11:18:26.516Z,101653.00
2019-02-21T11:20:59.279Z,101659.00
2019-02-21T11:23:30.263Z,101649.00
2019-02-21T11:26:01.163Z,101658.00
2019-02-21T11:28:31.967Z,101649.00
2019-02-21T11:31:03.318Z,101645.00
2019-02-21T11:33:33.789Z,101634.00
2019-02-21T11:36:04.506Z,101637.00
2019-02-21T11:38:35.176Z,101644.00
2019-02-21T11:41:06.273Z,101648.00
2019-02-21T11:43:38.354Z,101664.00
2019-02-21T11:46:09.395Z,101659.00
2019-02-21T11:48:40.643Z,101652.00
2019-02-21T11:51:11.360Z,101652.00
2019-02-21T11:53:42.206Z,101652.00
2019-02-21T11:56:15.601Z,101644.00
2019-02-21T11:58:47.200Z,101645.00
2019-02-21T12:01:18.041Z,101650.00
2019-02-21T12:03:48.890Z,101650.00
2019-02-21T12:06:19.960Z,101638.00
2019-02-21T12:08:50.698Z,101642.00
2019-02-21T12:11:21.600Z,101641.00
2019-02-21T12:13:52.350Z,101646.00
2019-02-21T12:16:22.906Z,101631.00
2019-02-21T12:18:54.031Z,101643.00
2019-02-21T12:21:24.847Z,101646.00
2019-02-21T12:23:57.924Z,101647.00
2019-02-21T12:26:28.531Z,101650.00
2019-02-21T12:28:59.342Z,101654.00
2019-02-21T12:31:30.162Z,101643.00
2019-02-21T12:34:01.081Z,101647.00
2019-02-21T12:36:32.024Z,101651.00
2019-02-21T12:39:04.271Z,101652.00
2019-02-21T12:41:34.972Z,101649.00
2019-02-21T12:44:05.616Z,101644.00
2019-02-21T12:46:36.645Z,101647.00
2019-02-21T12:49:07.485Z,101643.00
2019-02-21T12:51:38.140Z,101651.00
2019-02-21T12:54:08.900Z,101645.00
2019-02-21T12:56:39.778Z,101644.00
2019-02-21T12:59:10.506Z,101638.00
2019-02-21T13:01:41.496Z,101649.00
2019-02-21T13:04:12.264Z,101647.00
2019-02-21T13:06:44.766Z,101636.00
2019-02-21T13:09:15.410Z,101636.00
2019-02-21T13:11:46.328Z,101650.00
2019-02-21T13:14:16.976Z,101651.00
2019-02-21T13:16:50.876Z,101649.00
2019-02-21T13:19:21.526Z,101654.00
2019-02-21T13:21:52.168Z,101653.00
2019-02-21T13:24:22.749Z,101653.00
2019-02-21T13:26:53.508Z,101647.00
2019-02-21T13:29:24.174Z,101653.00
2019-02-21T13:31:58.303Z,101643.00
2019-02-21T13:34:28.989Z,101644.00
2019-02-21T13:36:59.473Z,101651.00
2019-02-21T13:39:33.981Z,101642.00
2019-02-21T13:42:07.008Z,101650.00
2019-02-21T13:44:37.706Z,101646.00
2019-02-21T13:47:08.136Z,101640.00
2019-02-21T13:49:39.096Z,101647.00
2019-02-21T13:52:09.761Z,101641.00
2019-02-21T13:54:40.158Z,101637.00
2019-02-21T13:57:10.926Z,101638.00
2019-02-21T13:59:44.662Z,101654.00
2019-02-21T14:02:15.506Z,101658.00
2019-02-21T14:04:45.909Z,101657.00
2019-02-21T14:07:16.802Z,101654.00
2019-02-21T14:09:47.831Z,101654.00
2019-02-21T14:12:18.385Z,101659.00
2019-02-21T14:14:50.999Z,101661.00
2019-02-21T14:17:22.135Z,101666.00
2019-02-21T14:19:53.238Z,101661.00
2019-02-21T14:22:24.360Z,101669.00
2019-02-21T14:24:54.925Z,101663.00
2019-02-21T14:27:25.617Z,101665.00
2019-02-21T14:29:56.687Z,101666.00
2019-02-21T14:32:27.385Z,101670.00
2019-02-21T14:34:58.029Z,101667.00
2019-02-21T14:37:28.905Z,101678.00
2019-02-21T14:39:59.677Z,101672.00
2019-02-21T14:42:31.577Z,101674.00
2019-02-21T14:45:02.060Z,101673.00
2019-02-21T14:47:32.687Z,101671.00
2019-02-21T14:50:04.687Z,101668.00
2019-02-21T14:52:36.137Z,101669.00
2019-02-21T14:55:10.237Z,101691.00
2019-02-21T14:57:41.405Z,101689.00
2019-02-21T15:00:15.573Z,101684.00
2019-02-21T15:02:46.268Z,101692.00
2019-02-21T15:05:16.970Z,101691.00
2019-02-21T15:07:48.937Z,101692.00
2019-02-21T15:10:19.623Z,101687.00
2019-02-21T15:12:50.291Z,101687.00
2019-02-21T15:15:22.093Z,101689.00
2019-02-21T15:18:07.012Z,101695.00
2019-02-21T15:20:36.790Z,101705.00
2019-02-21T15:23:03.726Z,101692.00
2019-02-21T15:25:34.524Z,101709.00
2019-02-21T15:28:05.247Z,101711.00
2019-02-21T15:30:35.851Z,101714.00
2019-02-21T15:33:06.899Z,101711.00
2019-02-21T15:35:37.637Z,101716.00
2019-02-21T15:38:19.050Z,101714.00
2019-02-21T15:40:43.326Z,101702.00
2019-02-21T15:43:13.166Z,101694.00
2019-02-21T15:45:43.964Z,101699.00
2019-02-21T15:48:14.697Z,101697.00
2019-02-21T15:50:45.610Z,101703.00
2019-02-21T15:53:18.631Z,101710.00
2019-02-21T15:55:49.730Z,101707.00
2019-02-21T15:58:20.541Z,101703.00
2019-02-21T16:00:52.599Z,101704.00
2019-02-21T16:03:23.857Z,101706.00
2019-02-21T16:05:56.779Z,101707.00
2019-02-21T16:08:27.718Z,101710.00
2019-02-21T16:10:58.684Z,101703.00
2019-02-21T16:13:29.657Z,101708.00
2019-02-21T16:16:02.554Z,101720.00
2019-02-21T16:18:33.154Z,101710.00
2019-02-21T16:21:06.408Z,101705.00
2019-02-21T16:23:37.447Z,101713.00
2019-02-21T16:26:08.065Z,101711.00
2019-02-21T16:28:38.897Z,101709.00
2019-02-21T16:31:10.023Z,101719.00
2019-02-21T16:33:40.553Z,101721.00
2019-02-21T16:36:11.056Z,101716.00
2019-02-21T16:38:41.885Z,101702.00
2019-02-21T16:41:12.878Z,101724.00
2019-02-21T16:43:43.199Z,101711.00
2019-02-21T16:46:13.656Z,101716.00
2019-02-21T16:48:43.988Z,101724.00
2019-02-21T16:51:14.517Z,101727.00
2019-02-21T16:53:45.115Z,101722.00
2019-02-21T16:56:15.363Z,101737.00
2019-02-21T16:58:45.863Z,101744.00
2019-02-21T17:01:16.128Z,101743.00
2019-02-21T17:03:46.437Z,101742.00
2019-02-21T17:06:17.830Z,101755.00
2019-02-21T17:08:48.071Z,101757.00
2019-02-21T17:11:18.621Z,101768.00
2019-02-21T17:13:55.579Z,101763.00
2019-02-21T17:16:21.163Z,101769.00
2019-02-21T17:18:51.888Z,101766.00
2019-02-21T17:21:22.657Z,101772.00
2019-02-21T17:23:53.338Z,101772.00
2019-02-21T17:26:23.717Z,101781.00
2019-02-21T17:28:54.065Z,101778.00
2019-02-21T17:31:24.364Z,101775.00
2019-02-21T17:33:54.755Z,101780.00
2019-02-21T17:36:35.205Z,101771.00
2019-02-21T17:39:06.661Z,101774.00
2019-02-21T17:41:37.057Z,101780.00
2019-02-21T17:44:07.581Z,101788.00
2019-02-21T17:46:37.959Z,101788.00
2019-02-21T17:49:10.682Z,101787.00
2019-02-21T17:51:41.117Z,101800.00
2019-02-21T17:54:11.685Z,101796.00
2019-02-21T17:56:44.569Z,101797.00
2019-02-21T17:59:15.096Z,101793.00
2019-02-21T18:01:45.601Z,101805.00
2019-02-21T18:04:16.055Z,101803.00
2019-02-21T18:06:46.475Z,101795.00
2019-02-21T18:09:16.959Z,101793.00
2019-02-21T18:11:47.361Z,101803.00
2019-02-21T18:14:18.131Z,101797.00
2019-02-21T18:16:52.597Z,101797.00
2019-02-21T18:19:23.359Z,101793.00
2019-02-21T18:21:53.869Z,101799.00
2019-02-21T18:24:24.239Z,101792.00
2019-02-21T18:26:55.006Z,101793.00
2019-02-21T18:29:25.599Z,101793.00
2019-02-21T18:31:56.353Z,101812.00
2019-02-21T18:34:26.799Z,101806.00
2019-02-21T18:36:57.285Z,101810.00
2019-02-21T18:39:30.782Z,101806.00
2019-02-21T18:42:01.202Z,101810.00
2019-02-21T18:44:34.750Z,101810.00
2019-02-21T18:47:08.418Z,101816.00
2019-02-21T18:49:38.912Z,101813.00
2019-02-21T18:52:09.309Z,101818.00
2019-02-21T18:54:39.760Z,101815.00
2019-02-21T18:57:12.260Z,101821.00
2019-02-21T18:59:42.161Z,101823.00
2019-02-21T19:02:12.601Z,101823.00
2019-02-21T19:04:43.738Z,101825.00
2019-02-21T19:07:14.156Z,101826.00
2019-02-21T19:09:44.554Z,101826.00
2019-02-21T19:12:16.425Z,101827.00
2019-02-21T19:14:46.759Z,101829.00
2019-02-21T19:17:20.516Z,101837.00
2019-02-21T19:19:51.048Z,101837.00
2019-02-21T19:22:21.584Z,101836.00
2019-02-21T19:24:52.006Z,101824.00
2019-02-21T19:27:22.317Z,101819.00
2019-02-21T19:29:52.811Z,101830.00
2019-02-21T19:32:23.296Z,101827.00
2019-02-21T19:34:54.330Z,101826.00
2019-02-21T19:37:24.787Z,101845.00
2019-02-21T19:39:55.215Z,101846.00
2019-02-21T19:42:31.689Z,101840.00
2019-02-21T19:45:01.973Z,101827.00
2019-02-21T19:47:32.394Z,101845.00
2019-02-21T19:50:02.766Z,101852.00
2019-02-21T19:52:33.201Z,101847.00
2019-02-21T19:55:03.750Z,101858.00
2019-02-21T19:57:34.589Z,101846.00
2019-02-21T20:00:05.978Z,101863.00
2019-02-21T20:02:36.398Z,101861.00
2019-02-21T20:05:07.133Z,101854.00
2019-02-21T20:07:37.526Z,101859.00
2019-02-21T20:10:08.146Z,101850.00
2019-02-21T20:12:38.542Z,101855.00
2019-02-21T20:15:11.821Z,101865.00
2019-02-21T20:17:42.398Z,101870.00
2019-02-21T20:20:14.196Z,101870.00
2019-02-21T20:22:44.644Z,101876.00
2019-02-21T20:25:15.021Z,101876.00
2019-02-21T20:27:47.998Z,101881.00
2019-02-21T20:30:18.553Z,101879.00
2019-02-21T20:32:51.624Z,101871.00
2019-02-21T20:35:23.570Z,101877.00
2019-02-21T20:37:53.966Z,101874.00
2019-02-21T20:40:25.620Z,101886.00
2019-02-21T20:42:56.057Z,101881.00
2019-02-21T20:45:26.440Z,101883.00
2019-02-21T20:47:56.798Z,101886.00
2019-02-21T20:50:27.174Z,101902.00
2019-02-21T20:52:57.620Z,101900.00
2019-02-21T20:55:28.227Z,101911.00
2019-02-21T20:57:58.938Z,101914.00
2019-02-21T21:00:29.312Z,101906.00
2019-02-21T21:02:59.682Z,101901.00
2019-02-21T21:05:30.090Z,101914.00
2019-02-21T21:08:00.497Z,101904.00
2019-02-21T21:10:30.848Z,101912.00
2019-02-21T21:13:01.268Z,101921.00
2019-02-21T21:15:31.701Z,101910.00
2019-02-21T21:18:02.138Z,101913.00
2019-02-21T21:20:32.606Z,101917.00
2019-02-21T21:23:05.352Z,101912.00
2019-02-21T21:25:36.068Z,101916.00
2019-02-21T21:28:06.454Z,101918.00
2019-02-21T21:30:36.861Z,101912.00
2019-02-21T21:33:08.413Z,101917.00
2019-02-21T21:35:39.196Z,101923.00
2019-02-21T21:38:09.602Z,101927.00
2019-02-21T21:40:40.064Z,101933.00
2019-02-21T21:43:10.578Z,101927.00
2019-02-21T21:45:41.128Z,101940.00
2019-02-21T21:48:11.552Z,101939.00
2019-02-21T21:50:41.919Z,101939.00
2019-02-21T21:53:12.363Z,101956.00
2019-02-21T21:55:42.762Z,101957.00
2019-02-21T21:58:13.430Z,101965.00
2019-02-21T22:00:44.214Z,101950.00
2019-02-21T22:03:14.620Z,101949.00
2019-02-21T22:05:48.040Z,101956.00
2019-02-21T22:08:18.717Z,101959.00
2019-02-21T22:10:51.540Z,101946.00
2019-02-21T22:13:21.264Z,101958.00
2019-02-21T22:15:51.917Z,101972.00
2019-02-21T22:18:24.023Z,101965.00
2019-02-21T22:20:54.420Z,101968.00
2019-02-21T22:23:24.888Z,101981.00
2019-02-21T22:25:55.336Z,101977.00
2019-02-21T22:28:26.437Z,101982.00
2019-02-21T22:30:58.177Z,101978.00
2019-02-21T22:33:28.759Z,101989.00
2019-02-21T22:36:00.717Z,101986.00
2019-02-21T22:38:31.205Z,101989.00
2019-02-21T22:41:01.925Z,101979.00
2019-02-21T22:43:32.333Z,101994.00
2019-02-21T22:46:02.682Z,101987.00
2019-02-21T22:48:33.067Z,101988.00
2019-02-21T22:51:03.490Z,101989.00
2019-02-21T22:53:33.944Z,101993.00
2019-02-21T22:56:04.775Z,101998.00
2019-02-21T22:58:44.780Z,101994.00
2019-02-21T23:03:52.036Z,102014.00
2019-02-21T23:06:53.335Z,102009.00
2019-02-21T23:09:27.828Z,102012.00
2019-02-21T23:11:57.731Z,102015.00
2019-02-21T23:14:28.166Z,102009.00
2019-02-21T23:16:58.778Z,102010.00
2019-02-21T23:19:29.253Z,102017.00
2019-02-21T23:21:59.911Z,102012.00
2019-02-21T23:24:30.482Z,102019.00
2019-02-21T23:27:01.082Z,102024.00
2019-02-21T23:29:31.536Z,102012.00
2019-02-21T23:32:03.319Z,102012.00
2019-02-21T23:34:42.972Z,102015.00
2019-02-21T23:37:13.540Z,102016.00
2019-02-21T23:39:44.047Z,102018.00
2019-02-21T23:42:14.676Z,102026.00
2019-02-21T23:44:50.886Z,102021.00
2019-02-21T23:47:21.319Z,102023.00
2019-02-21T23:49:51.747Z,102022.00
2019-02-21T23:52:22.273Z,102019.00
2019-02-21T23:54:52.625Z,102025.00
2019-02-21T23:57:24.269Z,102025.00
2019-02-21T23:59:54.786Z,102030.00
